createdAt,value
2022-11-20T00:01:22.593Z,9.25
2022-11-20T00:03:49.729Z,9.68
2022-11-20T00:06:18.656Z,10.40
2022-11-20T00:08:45.970Z,8.93
2022-11-20T00:11:31.693Z,9.43
2022-11-20T00:14:01.719Z,10.20
2022-11-20T00:16:31.089Z,9.00
2022-11-20T00:18:57.685Z,8.85
2022-11-20T00:21:26.424Z,9.15
2022-11-20T00:23:55.503Z,9.80
2022-11-20T00:26:24.266Z,9.70
2022-11-20T00:28:56.108Z,9.35
2022-11-20T00:31:23.296Z,9.68
2022-11-20T00:33:50.262Z,8.93
2022-11-20T00:36:19.451Z,8.73
2022-11-20T00:38:46.717Z,9.07
2022-11-20T00:41:15.647Z,8.90
2022-11-20T00:43:42.736Z,9.05
2022-11-20T00:46:17.545Z,8.25
2022-11-20T00:48:45.156Z,8.43
2022-11-20T00:51:13.891Z,9.05
2022-11-20T00:53:40.712Z,9.25
2022-11-20T00:56:10.419Z,9.18
2022-11-20T00:58:39.654Z,9.43
2022-11-20T01:01:32.832Z,9.07
2022-11-20T01:04:01.047Z,9.00
2022-11-20T01:06:31.355Z,9.80
2022-11-20T01:09:00.285Z,9.23
2022-11-20T01:11:29.783Z,9.07
2022-11-20T01:13:57.968Z,10.13
2022-11-20T01:16:30.839Z,10.57
2022-11-20T01:19:00.507Z,9.63
2022-11-20T01:21:32.424Z,9.77
2022-11-20T01:23:59.834Z,10.97
2022-11-20T01:26:30.194Z,9.82
2022-11-20T01:28:59.231Z,9.02
2022-11-20T01:31:31.701Z,9.38
2022-11-20T01:34:04.438Z,10.27
2022-11-20T01:36:32.580Z,9.82
2022-11-20T01:39:01.405Z,10.32
2022-11-20T01:41:48.928Z,9.60
2022-11-20T01:44:17.941Z,10.68
2022-11-20T01:47:01.721Z,9.95
2022-11-20T01:49:34.587Z,9.97
2022-11-20T01:52:06.406Z,9.63
2022-11-20T01:54:39.846Z,9.85
2022-11-20T01:57:09.740Z,9.68
2022-11-20T01:59:41.430Z,10.38
2022-11-20T02:02:07.997Z,9.63
2022-11-20T02:04:34.713Z,10.75
2022-11-20T02:07:03.361Z,9.70
2022-11-20T02:09:29.945Z,11.98
2022-11-20T02:11:57.427Z,12.07
2022-11-20T02:14:24.997Z,10.98
2022-11-20T02:16:52.218Z,11.10
2022-11-20T02:19:28.941Z,11.35
2022-11-20T02:22:01.395Z,10.90
2022-11-20T02:24:28.038Z,11.13
2022-11-20T02:27:05.332Z,10.82
2022-11-20T02:29:53.892Z,10.23
2022-11-20T02:32:28.326Z,9.90
2022-11-20T02:34:55.463Z,10.80
2022-11-20T02:37:22.844Z,11.65
2022-11-20T02:39:52.265Z,10.82
2022-11-20T02:42:19.240Z,9.60
2022-11-20T02:44:45.772Z,11.60
2022-11-20T02:47:12.298Z,9.80
2022-11-20T02:49:38.864Z,10.67
2022-11-20T02:52:05.672Z,11.10
2022-11-20T02:54:32.133Z,11.15
2022-11-20T02:56:58.699Z,11.07
2022-11-20T02:59:25.273Z,11.43
2022-11-20T03:01:51.863Z,9.60
2022-11-20T03:04:18.375Z,10.30
2022-11-20T03:06:44.840Z,10.37
2022-11-20T03:09:11.362Z,10.93
2022-11-20T03:11:37.865Z,9.80
2022-11-20T03:14:05.713Z,9.90
2022-11-20T03:16:33.498Z,11.10
2022-11-20T03:19:00.394Z,10.38
2022-11-20T03:21:27.256Z,10.38
2022-11-20T03:23:55.328Z,12.00
2022-11-20T03:26:24.508Z,12.18
2022-11-20T03:28:53.244Z,11.60
2022-11-20T03:31:22.556Z,12.07
2022-11-20T03:33:49.544Z,10.77
2022-11-20T03:36:17.817Z,10.98
2022-11-20T03:38:45.128Z,10.80
2022-11-20T03:41:14.404Z,10.27
2022-11-20T03:43:41.218Z,12.63
2022-11-20T03:46:08.547Z,11.95
2022-11-20T03:48:35.056Z,11.63
2022-11-20T03:51:18.816Z,13.05
2022-11-20T03:53:47.034Z,12.25
2022-11-20T03:56:16.446Z,12.10
2022-11-20T03:58:46.053Z,10.70
2022-11-20T04:01:16.384Z,10.75
2022-11-20T04:03:44.464Z,9.90
2022-11-20T04:06:13.779Z,10.98
2022-11-20T04:08:41.176Z,11.57
2022-11-20T04:11:16.911Z,11.25
2022-11-20T04:13:47.624Z,12.02
2022-11-20T04:16:14.400Z,10.43
2022-11-20T04:18:41.141Z,11.93
2022-11-20T04:21:08.424Z,11.23
2022-11-20T04:23:34.952Z,11.30
2022-11-20T04:26:05.955Z,9.45
2022-11-20T04:28:32.487Z,11.30
2022-11-20T04:31:10.760Z,10.82
2022-11-20T04:33:38.245Z,11.07
2022-11-20T04:36:12.787Z,9.80
2022-11-20T04:38:40.227Z,11.25
2022-11-20T04:41:08.838Z,9.50
2022-11-20T04:43:35.414Z,10.48
2022-11-20T04:46:02.427Z,10.07
2022-11-20T04:48:30.140Z,11.38
2022-11-20T04:50:57.099Z,10.95
2022-11-20T04:53:23.700Z,11.03
2022-11-20T04:55:50.620Z,10.65
2022-11-20T04:58:17.496Z,10.43
2022-11-20T05:00:52.684Z,9.88
2022-11-20T05:03:19.160Z,10.40
2022-11-20T05:05:45.753Z,10.27
2022-11-20T05:08:12.287Z,10.27
2022-11-20T05:10:39.058Z,8.87
2022-11-20T05:13:05.544Z,10.93
2022-11-20T05:15:33.268Z,9.23
2022-11-20T05:17:59.936Z,10.50
2022-11-20T05:20:26.487Z,9.57
2022-11-20T05:22:53.024Z,9.30
2022-11-20T05:25:19.569Z,10.82
2022-11-20T05:27:46.040Z,11.00
2022-11-20T05:30:13.675Z,9.60
2022-11-20T05:32:40.213Z,8.98
2022-11-20T05:35:07.044Z,9.00
2022-11-20T05:37:33.780Z,8.82
2022-11-20T05:40:00.353Z,9.63
2022-11-20T05:42:32.509Z,9.40
2022-11-20T05:45:00.102Z,9.95
2022-11-20T05:47:28.412Z,9.82
2022-11-20T05:49:55.078Z,9.98
2022-11-20T05:52:21.870Z,10.20
2022-11-20T05:54:48.378Z,10.73
2022-11-20T05:57:14.909Z,11.00
2022-11-20T05:59:41.759Z,11.57
2022-11-20T06:02:08.321Z,11.50
2022-11-20T06:04:34.848Z,10.55
2022-11-20T06:07:01.415Z,12.60
2022-11-20T06:09:28.073Z,11.85
2022-11-20T06:11:54.654Z,10.68
2022-11-20T06:14:21.132Z,11.05
2022-11-20T06:16:47.636Z,11.52
2022-11-20T06:19:14.333Z,10.30
2022-11-20T06:21:40.840Z,10.00
2022-11-20T06:24:08.039Z,11.83
2022-11-20T06:26:34.559Z,12.13
2022-11-20T06:29:01.099Z,12.05
2022-11-20T06:31:29.222Z,11.63
2022-11-20T06:33:55.741Z,10.35
2022-11-20T06:36:23.701Z,10.77
2022-11-20T06:38:50.749Z,11.80
2022-11-20T06:41:20.982Z,10.93
2022-11-20T06:43:48.043Z,10.45
2022-11-20T06:46:18.429Z,11.95
2022-11-20T06:48:45.772Z,11.53
2022-11-20T06:51:12.565Z,12.85
2022-11-20T06:53:39.534Z,12.27
2022-11-20T06:56:06.836Z,12.63
2022-11-20T06:58:34.956Z,11.60
2022-11-20T07:01:03.915Z,11.68
2022-11-20T07:03:30.410Z,11.68
2022-11-20T07:05:57.845Z,11.05
2022-11-20T07:08:25.288Z,12.85
2022-11-20T07:10:52.016Z,13.50
2022-11-20T07:13:18.561Z,12.57
2022-11-20T07:15:47.765Z,11.82
2022-11-20T07:18:14.275Z,12.48
2022-11-20T07:20:40.863Z,10.97
2022-11-20T07:23:07.428Z,11.18
2022-11-20T07:25:33.940Z,12.25
2022-11-20T07:28:01.551Z,13.38
2022-11-20T07:30:28.928Z,14.20
2022-11-20T07:32:56.714Z,13.55
2022-11-20T07:35:27.059Z,13.55
2022-11-20T07:37:53.628Z,12.40
2022-11-20T07:40:20.945Z,15.07
2022-11-20T07:42:54.469Z,13.32
2022-11-20T07:45:23.627Z,14.50
2022-11-20T07:47:50.660Z,15.18
2022-11-20T07:50:17.760Z,15.07
2022-11-20T07:52:44.532Z,14.00
2022-11-20T07:55:14.470Z,14.95
2022-11-20T07:57:41.060Z,15.30
2022-11-20T08:00:12.731Z,15.00
2022-11-20T08:02:40.368Z,14.70
2022-11-20T08:05:08.305Z,14.68
2022-11-20T08:07:39.210Z,16.55
2022-11-20T08:10:07.131Z,14.73
2022-11-20T08:12:52.350Z,13.82
2022-11-20T08:15:18.850Z,15.77
2022-11-20T08:18:02.061Z,15.18
2022-11-20T08:20:32.498Z,15.57
2022-11-20T08:23:03.901Z,16.83
2022-11-20T08:25:30.777Z,15.20
2022-11-20T08:28:08.977Z,14.50
2022-11-20T08:30:38.856Z,13.52
2022-11-20T08:33:08.849Z,14.82
2022-11-20T08:35:39.420Z,14.03
2022-11-20T08:38:06.944Z,15.45
2022-11-20T08:40:34.387Z,16.75
2022-11-20T08:43:01.760Z,16.80
2022-11-20T08:45:32.514Z,15.18
2022-11-20T08:48:02.393Z,44.20
2022-11-20T08:50:29.328Z,22.38
2022-11-20T08:52:55.921Z,15.17
2022-11-20T08:55:22.543Z,15.50
2022-11-20T08:57:51.095Z,14.32
2022-11-20T09:00:18.026Z,15.97
2022-11-20T09:02:44.674Z,13.18
2022-11-20T09:05:11.316Z,16.95
2022-11-20T09:07:38.009Z,18.75
2022-11-20T09:10:23.111Z,14.88
2022-11-20T09:12:51.549Z,13.85
2022-11-20T09:15:18.672Z,14.57
2022-11-20T09:17:56.111Z,13.80
2022-11-20T09:20:23.074Z,13.73
2022-11-20T09:22:49.717Z,13.55
2022-11-20T09:25:16.505Z,14.30
2022-11-20T09:27:44.994Z,14.60
2022-11-20T09:30:12.134Z,14.75
2022-11-20T09:32:39.911Z,14.60
2022-11-20T09:35:06.873Z,14.90
2022-11-20T09:37:33.590Z,14.05
2022-11-20T09:40:00.160Z,15.80
2022-11-20T09:42:47.688Z,13.80
2022-11-20T09:45:23.327Z,13.95
2022-11-20T09:48:12.838Z,14.38
2022-11-20T09:50:48.888Z,10.93
2022-11-20T09:53:30.783Z,13.23
2022-11-20T09:55:57.709Z,13.48
2022-11-20T09:58:36.651Z,13.70
2022-11-20T10:01:12.487Z,13.80
2022-11-20T10:03:53.856Z,12.60
2022-11-20T10:06:30.346Z,13.00
2022-11-20T10:09:15.260Z,13.57
2022-11-20T10:12:00.308Z,12.60
2022-11-20T10:14:39.669Z,13.32
2022-11-20T10:17:34.690Z,13.77
2022-11-20T10:20:01.174Z,13.55
2022-11-20T10:22:49.547Z,12.27
2022-11-20T10:25:29.421Z,13.98
2022-11-20T10:28:19.719Z,12.15
2022-11-20T10:30:50.104Z,12.75
2022-11-20T10:33:20.614Z,12.63
2022-11-20T10:35:56.459Z,12.32
2022-11-20T10:38:27.138Z,11.95
2022-11-20T10:41:21.609Z,13.47
2022-11-20T10:43:51.582Z,12.43
2022-11-20T10:46:23.289Z,12.30
2022-11-20T10:48:50.838Z,12.25
2022-11-20T10:52:02.603Z,13.77
2022-11-20T10:54:48.563Z,13.15
2022-11-20T10:57:21.171Z,13.98
2022-11-20T11:00:01.588Z,12.77
2022-11-20T11:02:48.032Z,13.43
2022-11-20T11:05:41.625Z,13.25
2022-11-20T11:08:14.647Z,14.80
2022-11-20T11:10:47.247Z,11.97
2022-11-20T11:13:28.882Z,10.38
2022-11-20T11:15:56.584Z,15.63
2022-11-20T11:18:31.531Z,11.70
2022-11-20T11:21:01.686Z,13.48
2022-11-20T11:23:40.889Z,14.35
2022-11-20T11:26:28.135Z,13.57
2022-11-20T11:29:00.319Z,14.00
2022-11-20T11:31:35.276Z,19.58
2022-11-20T11:34:16.112Z,16.73
2022-11-20T11:36:50.584Z,14.23
2022-11-20T11:39:19.938Z,14.93
2022-11-20T11:41:47.391Z,14.23
2022-11-20T11:44:41.425Z,15.75
2022-11-20T11:47:27.333Z,14.73
2022-11-20T11:50:14.213Z,16.83
2022-11-20T11:52:51.064Z,18.27
2022-11-20T11:55:48.824Z,13.35
2022-11-20T11:58:35.728Z,13.80
2022-11-20T12:01:15.599Z,14.05
2022-11-20T12:03:45.540Z,14.00
2022-11-20T12:06:15.494Z,15.90
2022-11-20T12:08:54.144Z,13.13
2022-11-20T12:11:59.650Z,14.52
2022-11-20T12:14:35.376Z,15.63
2022-11-20T12:17:03.754Z,14.02
2022-11-20T12:19:34.410Z,13.30
2022-11-20T12:22:06.166Z,12.60
2022-11-20T12:25:20.383Z,13.90
2022-11-20T12:28:00.439Z,80.95
2022-11-20T12:30:27.142Z,18.00
2022-11-20T12:33:16.232Z,11.77
2022-11-20T12:35:52.254Z,12.80
2022-11-20T12:38:21.937Z,12.68
2022-11-20T12:41:06.792Z,13.47
2022-11-20T12:44:04.321Z,10.93
2022-11-20T12:46:37.238Z,12.32
2022-11-20T12:49:14.725Z,13.57
2022-11-20T12:51:48.283Z,13.75
2022-11-20T12:54:29.003Z,13.68
2022-11-20T12:57:19.350Z,12.27
2022-11-20T13:00:07.148Z,12.82
2022-11-20T13:02:55.233Z,15.43
2022-11-20T13:05:46.231Z,15.25
2022-11-20T13:08:24.022Z,13.65
2022-11-20T13:10:58.189Z,14.80
2022-11-20T13:13:53.759Z,14.63
2022-11-20T13:16:30.931Z,17.33
2022-11-20T13:19:01.479Z,15.75
2022-11-20T13:21:43.312Z,14.73
2022-11-20T13:24:26.956Z,16.37
2022-11-20T13:27:08.657Z,12.80
2022-11-20T13:29:37.440Z,13.25
2022-11-20T13:32:21.860Z,11.88
2022-11-20T13:35:03.475Z,12.30
2022-11-20T13:37:31.816Z,12.43
2022-11-20T13:40:11.234Z,13.88
2022-11-20T13:42:46.312Z,15.57
2022-11-20T13:45:25.243Z,16.50
2022-11-20T13:47:53.266Z,15.95
2022-11-20T13:50:22.495Z,14.80
2022-11-20T13:52:58.033Z,13.35
2022-11-20T13:55:47.136Z,11.33
2022-11-20T13:58:32.911Z,11.30
2022-11-20T14:01:09.086Z,11.23
2022-11-20T14:04:07.236Z,10.52
2022-11-20T14:06:29.206Z,10.07
2022-11-20T14:08:56.883Z,10.10
2022-11-20T14:11:26.389Z,11.20
2022-11-20T14:14:06.327Z,10.77
2022-11-20T14:16:36.103Z,9.80
2022-11-20T14:19:21.006Z,10.23
2022-11-20T14:21:53.687Z,10.77
2022-11-20T14:24:22.987Z,9.87
2022-11-20T14:26:51.272Z,11.27
2022-11-20T14:29:27.024Z,10.65
2022-11-20T14:31:54.969Z,9.68
2022-11-20T14:34:25.886Z,9.83
2022-11-20T14:36:57.064Z,9.93
2022-11-20T14:39:30.117Z,9.75
2022-11-20T14:41:56.711Z,10.00
2022-11-20T14:44:34.801Z,10.63
2022-11-20T14:47:03.709Z,11.00
2022-11-20T14:49:32.265Z,11.68
2022-11-20T14:52:04.019Z,10.98
2022-11-20T14:54:31.567Z,9.88
2022-11-20T14:57:05.121Z,9.32
2022-11-20T14:59:34.459Z,10.48
2022-11-20T15:02:09.033Z,10.57
2022-11-20T15:05:05.785Z,10.85
2022-11-20T15:07:35.289Z,10.63
2022-11-20T15:10:07.134Z,11.38
2022-11-20T15:12:36.775Z,10.13
2022-11-20T15:15:04.351Z,10.45
2022-11-20T15:17:32.637Z,10.10
2022-11-20T15:20:02.833Z,10.38
2022-11-20T15:22:29.392Z,9.40
2022-11-20T15:24:56.025Z,9.35
2022-11-20T15:27:22.658Z,10.20
2022-11-20T15:29:49.246Z,10.80
2022-11-20T15:32:15.816Z,10.93
2022-11-20T15:34:42.916Z,9.75
2022-11-20T15:37:09.534Z,10.68
2022-11-20T15:39:36.132Z,10.95
2022-11-20T15:42:02.642Z,9.65
2022-11-20T15:44:29.196Z,10.93
2022-11-20T15:46:55.723Z,9.82
2022-11-20T15:49:24.236Z,24.05
2022-11-20T15:51:51.037Z,9.95
2022-11-20T15:54:21.434Z,9.57
2022-11-20T15:56:49.883Z,10.02
2022-11-20T15:59:16.463Z,11.07
2022-11-20T16:01:43.497Z,10.68
2022-11-20T16:04:15.960Z,11.30
2022-11-20T16:06:42.484Z,10.45
2022-11-20T16:09:26.690Z,9.75
2022-11-20T16:11:53.191Z,8.77
2022-11-20T16:14:38.464Z,9.90
2022-11-20T16:17:05.260Z,9.25
2022-11-20T16:19:31.801Z,10.90
2022-11-20T16:22:02.722Z,10.38
2022-11-20T16:24:30.290Z,12.20
2022-11-20T16:26:57.448Z,11.65
2022-11-20T16:29:23.946Z,11.82
2022-11-20T16:31:50.539Z,10.00
2022-11-20T16:34:17.868Z,11.23
2022-11-20T16:36:45.843Z,11.07
2022-11-20T16:39:12.812Z,10.50
2022-11-20T16:41:39.365Z,10.88
2022-11-20T16:44:10.821Z,11.67
2022-11-20T16:46:37.519Z,10.02
2022-11-20T16:49:06.802Z,10.82
2022-11-20T16:51:36.332Z,10.05
2022-11-20T16:54:05.252Z,10.27
2022-11-20T16:56:31.876Z,10.15
2022-11-20T16:58:59.950Z,10.40
2022-11-20T17:01:28.737Z,9.67
2022-11-20T17:04:00.648Z,10.27
2022-11-20T17:06:30.216Z,10.93
2022-11-20T17:08:57.984Z,11.20
2022-11-20T17:11:27.877Z,11.67
2022-11-20T17:14:01.101Z,11.65
2022-11-20T17:16:27.722Z,10.80
2022-11-20T17:18:59.730Z,11.35
2022-11-20T17:21:32.601Z,10.90
2022-11-20T17:24:04.630Z,12.32
2022-11-20T17:26:31.963Z,12.50
2022-11-20T17:29:03.644Z,13.25
2022-11-20T17:31:31.814Z,12.37
2022-11-20T17:34:00.323Z,12.57
2022-11-20T17:36:27.990Z,13.70
2022-11-20T17:38:55.124Z,13.60
2022-11-20T17:41:23.202Z,11.63
2022-11-20T17:43:50.022Z,13.32
2022-11-20T17:46:19.238Z,13.48
2022-11-20T17:48:47.192Z,14.25
2022-11-20T17:51:24.739Z,16.60
2022-11-20T17:54:00.774Z,13.82
2022-11-20T17:56:50.485Z,12.85
2022-11-20T17:59:18.598Z,14.07
2022-11-20T18:01:45.630Z,14.07
2022-11-20T18:04:13.014Z,21.77
2022-11-20T18:06:39.893Z,14.35
2022-11-20T18:09:06.964Z,13.85
2022-11-20T18:11:36.554Z,13.60
2022-11-20T18:14:24.801Z,13.82
2022-11-20T18:17:01.363Z,13.73
2022-11-20T18:19:32.665Z,12.43
2022-11-20T18:22:01.558Z,11.77
2022-11-20T18:24:28.325Z,11.93
2022-11-20T18:26:55.148Z,12.32
2022-11-20T18:29:22.268Z,10.63
2022-11-20T18:31:49.872Z,10.37
2022-11-20T18:34:16.527Z,9.95
2022-11-20T18:36:45.094Z,9.80
2022-11-20T18:39:13.860Z,9.27
2022-11-20T18:41:59.923Z,8.03
2022-11-20T18:44:50.609Z,8.20
2022-11-20T18:47:22.811Z,7.47
2022-11-20T18:49:55.187Z,6.65
2022-11-20T18:52:24.563Z,7.13
2022-11-20T18:54:51.407Z,7.00
2022-11-20T18:57:23.389Z,6.45
2022-11-20T18:59:50.063Z,5.25
2022-11-20T19:02:19.159Z,5.07
2022-11-20T19:04:45.782Z,3.38
2022-11-20T19:07:13.224Z,4.22
2022-11-20T19:09:41.019Z,3.55
2022-11-20T19:12:09.298Z,3.30
2022-11-20T19:14:35.969Z,2.08
2022-11-20T19:17:03.924Z,2.63
2022-11-20T19:19:30.465Z,2.70
2022-11-20T19:21:57.003Z,2.17
2022-11-20T19:24:24.380Z,4.45
2022-11-20T19:26:51.068Z,3.42
2022-11-20T19:29:17.737Z,2.53
2022-11-20T19:31:44.434Z,3.37
2022-11-20T19:34:12.028Z,2.80
2022-11-20T19:36:44.492Z,2.38
2022-11-20T19:39:12.054Z,2.60
2022-11-20T19:41:40.126Z,3.27
2022-11-20T19:44:12.334Z,1.67
2022-11-20T19:46:39.860Z,2.70
2022-11-20T19:49:09.998Z,2.17
2022-11-20T19:51:38.059Z,2.53
2022-11-20T19:54:05.532Z,2.33
2022-11-20T19:56:33.469Z,2.55
2022-11-20T19:59:00.413Z,2.13
2022-11-20T20:01:29.559Z,2.50
2022-11-20T20:04:01.296Z,2.33
2022-11-20T20:06:28.525Z,1.85
2022-11-20T20:09:11.957Z,2.10
2022-11-20T20:11:39.926Z,2.00
2022-11-20T20:14:09.899Z,2.22
2022-11-20T20:16:36.665Z,2.47
2022-11-20T20:19:06.107Z,2.03
2022-11-20T20:21:34.995Z,2.42
2022-11-20T20:24:02.108Z,2.58
2022-11-20T20:26:30.990Z,1.70
2022-11-20T20:28:57.910Z,2.53
2022-11-20T20:31:26.979Z,2.55
2022-11-20T20:33:54.332Z,1.88
2022-11-20T20:36:22.265Z,1.40
2022-11-20T20:38:55.750Z,2.77
2022-11-20T20:41:23.718Z,0.80
2022-11-20T20:44:09.067Z,1.85
2022-11-20T20:46:35.587Z,1.73
2022-11-20T20:49:02.136Z,1.40
2022-11-20T20:51:28.936Z,1.33
2022-11-20T20:53:55.793Z,1.15
2022-11-20T20:56:22.392Z,1.40
2022-11-20T20:58:49.029Z,1.37
2022-11-20T21:01:17.903Z,0.88
2022-11-20T21:03:44.694Z,0.95
2022-11-20T21:06:11.871Z,0.63
2022-11-20T21:08:40.738Z,0.97
2022-11-20T21:11:11.011Z,0.63
2022-11-20T21:13:39.017Z,1.10
2022-11-20T21:16:06.168Z,6.15
2022-11-20T21:18:33.406Z,1.07
2022-11-20T21:21:19.203Z,1.10
2022-11-20T21:23:47.504Z,0.90
2022-11-20T21:26:15.753Z,0.93
2022-11-20T21:28:43.026Z,0.80
2022-11-20T21:31:12.418Z,0.75
2022-11-20T21:33:40.978Z,1.00
2022-11-20T21:36:08.853Z,0.90
2022-11-20T21:38:35.975Z,0.88
2022-11-20T21:41:04.410Z,0.80
2022-11-20T21:43:30.979Z,1.98
2022-11-20T21:46:05.877Z,1.42
2022-11-20T21:48:33.946Z,0.83
2022-11-20T21:51:10.635Z,0.65
2022-11-20T21:53:37.654Z,0.60
2022-11-20T21:56:06.315Z,0.50
2022-11-20T21:58:34.748Z,0.40
2022-11-20T22:01:09.917Z,0.98
2022-11-20T22:03:37.799Z,0.45
2022-11-20T22:06:06.666Z,0.47
2022-11-20T22:08:37.780Z,0.90
2022-11-20T22:11:07.845Z,1.23
2022-11-20T22:13:53.466Z,0.85
2022-11-20T22:16:20.451Z,0.50
2022-11-20T22:18:51.714Z,1.03
2022-11-20T22:21:20.614Z,0.57
2022-11-20T22:23:47.956Z,0.95
2022-11-20T22:26:39.875Z,0.75
2022-11-20T22:29:07.503Z,1.00
2022-11-20T22:31:34.065Z,2.25
2022-11-20T22:34:02.691Z,0.90
2022-11-20T22:36:31.041Z,0.93
2022-11-20T22:38:58.240Z,0.80
2022-11-20T22:41:27.451Z,0.70
2022-11-20T22:43:58.916Z,1.10
2022-11-20T22:46:27.159Z,1.00
2022-11-20T22:48:54.660Z,0.60
2022-11-20T22:51:26.455Z,0.73
2022-11-20T22:53:53.679Z,1.00
2022-11-20T22:56:20.615Z,0.70
2022-11-20T22:58:49.187Z,0.93
2022-11-20T23:01:18.125Z,1.17
2022-11-20T23:03:49.558Z,0.90
2022-11-20T23:06:18.541Z,0.70
2022-11-20T23:08:45.744Z,0.70
2022-11-20T23:11:17.954Z,0.80
2022-11-20T23:13:45.690Z,0.98
2022-11-20T23:16:17.666Z,0.90
2022-11-20T23:18:44.763Z,0.80
2022-11-20T23:21:14.454Z,1.40
2022-11-20T23:23:41.566Z,0.85
2022-11-20T23:26:10.812Z,0.63
2022-11-20T23:28:38.316Z,0.60
2022-11-20T23:31:05.560Z,1.05
2022-11-20T23:33:34.754Z,0.98
2022-11-20T23:36:01.615Z,1.57
2022-11-20T23:38:28.100Z,0.88
2022-11-20T23:40:54.547Z,0.70
2022-11-20T23:43:22.359Z,0.73
2022-11-20T23:45:53.671Z,0.73
2022-11-20T23:48:21.752Z,0.50
2022-11-20T23:50:48.514Z,0.93
2022-11-20T23:53:16.099Z,0.40
2022-11-20T23:55:50.091Z,0.70
2022-11-20T23:58:16.679Z,1.40
